Time;durP1;ratioP1;P1;durP2;ratioP2;P2;SDS_P1;SDS_P2;PMS_P1;PMS_P2;Temp;Humidity;BMP_temperature;BMP_pressure;BME280_temperature;BME280_humidity;BME280_pressure;Samples;Min_cycle;Max_cycle;Signal;HPM_P1;HPM_P2
2022/06/09 00:00:49;;;;;;;0.40;0.40;;;;;;;13.08;96.95;95110.38;5014959;28;20174;-81
2022/06/09 00:03:19;;;;;;;0.40;0.40;;;;;;;13.17;97.15;95123.16;5031017;28;20175;-81
2022/06/09 00:05:45;;;;;;;1.43;0.50;;;;;;;13.15;97.51;95122.50;5013340;28;20202;-83
2022/06/09 00:08:11;;;;;;;0.73;0.50;;;;;;;13.20;97.33;95122.03;5025813;28;20679;-82
2022/06/09 00:10:39;;;;;;;1.00;0.50;;;;;;;13.12;98.64;95107.22;5023050;28;20195;-81
2022/06/09 00:13:05;;;;;;;0.87;0.53;;;;;;;13.15;98.34;95112.09;4998645;28;20627;-82
2022/06/09 00:15:30;;;;;;;1.27;0.60;;;;;;;13.18;99.05;95122.19;5029384;28;20261;-83
2022/06/09 00:17:56;;;;;;;1.00;0.47;;;;;;;13.11;99.68;95116.03;5014204;28;20238;-83
2022/06/09 00:20:22;;;;;;;0.83;0.40;;;;;;;12.99;100.00;95117.44;4997540;28;20230;-81
2022/06/09 00:22:47;;;;;;;0.40;0.40;;;;;;;13.12;100.00;95125.47;5012337;28;20222;-81
2022/06/09 00:25:13;;;;;;;0.77;0.53;;;;;;;13.06;100.00;95131.38;4996273;28;20607;-82
2022/06/09 00:27:38;;;;;;;0.83;0.33;;;;;;;13.04;100.00;95125.53;5028902;28;20207;-81
2022/06/09 00:30:05;;;;;;;0.50;0.47;;;;;;;13.11;100.00;95123.84;4996705;28;20191;-81
2022/06/09 00:32:31;;;;;;;0.67;0.50;;;;;;;12.97;100.00;95121.97;5013385;28;20210;-80
2022/06/09 00:34:56;;;;;;;0.53;0.53;;;;;;;12.89;100.00;95127.25;5012520;28;20210;-82
2022/06/09 00:37:22;;;;;;;1.13;0.60;;;;;;;12.76;100.00;95122.59;5012986;28;20183;-81
2022/06/09 00:39:47;;;;;;;0.87;0.70;;;;;;;12.62;100.00;95129.31;4996662;28;20225;-81
2022/06/09 00:42:12;;;;;;;0.70;0.50;;;;;;;12.64;100.00;95131.78;5013124;28;20185;-81
2022/06/09 00:44:38;;;;;;;1.20;0.40;;;;;;;12.68;100.00;95120.84;5012503;28;20198;-81
2022/06/09 00:47:23;;;;;;;1.93;0.57;;;;;;;12.54;100.00;95126.75;5013219;28;20639;-82
2022/06/09 00:49:58;;;;;;;7.27;0.90;;;;;;;12.58;100.00;95119.44;4996405;28;20194;-81
2022/06/09 00:52:25;;;;;;;0.83;0.47;;;;;;;12.60;100.00;95123.47;5012543;28;20183;-79
2022/06/09 00:54:53;;;;;;;2.30;0.80;;;;;;;12.59;100.00;95121.88;4995647;28;20298;-82
2022/06/09 00:57:25;;;;;;;1.63;0.70;;;;;;;12.65;100.00;95123.00;4996378;28;20186;-81
2022/06/09 00:59:53;;;;;;;1.10;0.83;;;;;;;12.57;100.00;95123.84;5012681;28;20175;-79
2022/06/09 01:02:19;;;;;;;1.53;0.83;;;;;;;12.72;100.00;95127.34;5012535;28;20274;-81
2022/06/09 01:04:46;;;;;;;1.73;0.80;;;;;;;12.54;100.00;95129.38;5022120;28;20262;-81
2022/06/09 01:07:18;;;;;;;1.07;0.80;;;;;;;12.58;100.00;95130.66;5006946;28;20278;-82
2022/06/09 01:09:43;;;;;;;1.90;0.80;;;;;;;12.59;100.00;95134.06;5014282;28;20214;-81
2022/06/09 01:12:35;;;;;;;0.90;0.70;;;;;;;12.58;100.00;95130.66;4997552;28;20230;-81
2022/06/09 01:15:10;;;;;;;2.77;1.00;;;;;;;12.55;100.00;95136.22;4996319;28;20581;-82
2022/06/09 01:17:47;;;;;;;2.23;1.20;;;;;;;12.56;100.00;95126.63;4996109;28;20202;-83
2022/06/09 01:20:39;;;;;;;2.40;0.70;;;;;;;12.56;100.00;95132.63;5012950;28;20229;-83
2022/06/09 01:23:21;;;;;;;1.93;1.10;;;;;;;12.62;100.00;95124.13;5014745;28;20261;-83
2022/06/09 01:25:58;;;;;;;3.43;1.03;;;;;;;12.50;100.00;95127.28;5029081;28;20325;-83
2022/06/09 01:28:48;;;;;;;1.57;1.00;;;;;;;12.52;100.00;95125.31;4996353;28;20203;-83
2022/06/09 01:31:31;;;;;;;2.67;1.07;;;;;;;12.48;100.00;95125.66;5013946;28;20179;-82
2022/06/09 01:34:21;;;;;;;2.30;0.90;;;;;;;12.46;100.00;95132.03;5048532;28;20255;-80
2022/06/09 01:37:27;;;;;;;4.50;1.00;;;;;;;12.42;100.00;95130.72;5037323;28;20190;-79
2022/06/09 01:39:58;;;;;;;2.67;1.00;;;;;;;12.48;100.00;95133.47;5001329;28;20163;-78
2022/06/09 01:42:35;;;;;;;1.63;0.93;;;;;;;12.32;100.00;95124.91;4995369;28;20184;-79
2022/06/09 01:45:12;;;;;;;1.90;1.27;;;;;;;12.38;100.00;95129.44;4960234;28;20667;-80
2022/06/09 01:47:43;;;;;;;2.10;0.90;;;;;;;12.28;100.00;95123.59;4976487;28;20744;-81
2022/06/09 01:50:12;;;;;;;1.00;0.90;;;;;;;12.33;100.00;95126.53;4976619;28;20591;-80
2022/06/09 01:52:41;;;;;;;2.53;1.27;;;;;;;12.31;100.00;95139.72;4975134;28;20211;-80
2022/06/09 01:55:07;;;;;;;2.00;1.10;;;;;;;12.37;100.00;95138.25;4974778;28;20214;-80
2022/06/09 01:57:36;;;;;;;4.13;1.27;;;;;;;12.39;100.00;95139.69;4974937;28;20578;-81
2022/06/09 02:00:27;;;;;;;4.00;1.20;;;;;;;12.30;100.00;95139.91;4974644;28;20219;-81
2022/06/09 02:02:57;;;;;;;2.60;1.27;;;;;;;12.23;100.00;95142.34;4974749;28;20302;-80
2022/06/09 02:05:29;;;;;;;3.40;1.10;;;;;;;12.14;100.00;95148.56;4958204;28;20176;-80
2022/06/09 02:07:58;;;;;;;3.63;1.20;;;;;;;12.09;100.00;95149.03;4974972;28;20567;-81
2022/06/09 02:10:45;;;;;;;3.17;1.20;;;;;;;12.19;100.00;95147.09;4959600;28;20595;-81
2022/06/09 02:13:18;;;;;;;2.27;0.90;;;;;;;12.19;100.00;95143.66;4966887;28;20187;-81
2022/06/09 02:15:47;;;;;;;5.23;1.30;;;;;;;12.17;100.00;95143.81;5028726;28;20222;-82
2022/06/09 02:18:18;;;;;;;5.57;1.40;;;;;;;12.13;100.00;95144.34;5012512;28;20226;-81
2022/06/09 02:20:48;;;;;;;1.93;1.20;;;;;;;12.14;100.00;95153.75;5013176;28;20631;-82
2022/06/09 02:23:14;;;;;;;2.13;1.43;;;;;;;12.05;100.00;95149.56;5011539;28;20175;-81
2022/06/09 02:25:40;;;;;;;1.90;1.47;;;;;;;12.09;100.00;95156.84;4994775;28;21058;-81
2022/06/09 02:28:06;;;;;;;3.53;1.37;;;;;;;12.13;100.00;95155.56;5011445;28;20205;-80
2022/06/09 02:30:32;;;;;;;3.30;1.40;;;;;;;12.06;100.00;95154.59;5012318;28;20171;-79
2022/06/09 02:32:57;;;;;;;3.20;1.40;;;;;;;12.02;100.00;95161.13;5011516;28;20181;-79
2022/06/09 02:35:23;;;;;;;3.23;1.80;;;;;;;11.97;100.00;95166.00;4994507;28;20234;-78
2022/06/09 02:37:48;;;;;;;2.97;1.50;;;;;;;11.98;100.00;95162.41;5011505;28;20291;-82
2022/06/09 02:40:13;;;;;;;2.87;1.40;;;;;;;12.05;100.00;95165.97;5011324;28;20183;-81
2022/06/09 02:42:39;;;;;;;5.87;1.60;;;;;;;12.06;100.00;95162.41;5011251;28;20175;-81
2022/06/09 02:45:05;;;;;;;4.30;1.50;;;;;;;12.09;100.00;95172.47;5010752;28;20206;-80
2022/06/09 02:47:30;;;;;;;3.90;1.83;;;;;;;12.09;100.00;95166.44;4994654;28;20630;-80
2022/06/09 02:49:55;;;;;;;2.73;1.57;;;;;;;12.11;100.00;95164.53;5010722;28;20176;-79
2022/06/09 02:52:20;;;;;;;3.23;1.70;;;;;;;12.16;100.00;95168.22;4994136;28;20179;-80
2022/06/09 02:54:46;;;;;;;3.00;1.60;;;;;;;12.24;100.00;95169.19;5009714;28;20659;-81
2022/06/09 02:57:11;;;;;;;6.10;1.90;;;;;;;12.22;100.00;95171.97;5011739;28;20179;-80
2022/06/09 02:59:36;;;;;;;6.20;2.07;;;;;;;12.27;100.00;95171.44;5010677;28;20274;-81
2022/06/09 03:02:02;;;;;;;5.13;1.80;;;;;;;12.24;100.00;95177.81;4994204;28;20536;-80
2022/06/09 03:04:27;;;;;;;5.70;2.10;;;;;;;12.24;100.00;95180.41;5026357;28;20655;-81
2022/06/09 03:06:53;;;;;;;2.70;1.60;;;;;;;12.22;100.00;95182.38;4995740;28;20595;-79
2022/06/09 03:09:18;;;;;;;3.90;1.63;;;;;;;12.21;100.00;95185.16;5032687;28;20199;-82
2022/06/09 03:11:43;;;;;;;2.70;1.67;;;;;;;12.11;100.00;95178.34;5000573;28;20183;-82
2022/06/09 03:14:10;;;;;;;6.50;2.10;;;;;;;11.99;100.00;95187.44;4994873;28;20219;-83
2022/06/09 03:16:36;;;;;;;6.53;2.43;;;;;;;12.03;100.00;95193.97;5011691;28;20186;-83
2022/06/09 03:19:01;;;;;;;2.20;1.67;;;;;;;12.15;100.00;95191.81;5011632;28;20195;-83
2022/06/09 03:21:26;;;;;;;4.27;1.70;;;;;;;12.02;100.00;95186.34;5010293;28;20237;-82
2022/06/09 03:23:52;;;;;;;3.73;2.10;;;;;;;12.10;100.00;95186.28;5010260;28;20179;-82
2022/06/09 03:26:17;;;;;;;5.00;2.07;;;;;;;12.11;100.00;95190.53;4994760;28;20240;-82
2022/06/09 03:28:42;;;;;;;4.33;2.10;;;;;;;12.09;100.00;95189.88;4994366;28;20207;-81
2022/06/09 03:31:08;;;;;;;5.83;2.10;;;;;;;12.10;100.00;95196.69;4994629;28;20183;-82
2022/06/09 03:33:33;;;;;;;4.73;2.00;;;;;;;12.19;100.00;95206.13;5011099;28;20660;-82
2022/06/09 03:35:58;;;;;;;5.53;2.10;;;;;;;12.19;100.00;95206.97;5010298;28;20610;-80
2022/06/09 03:38:24;;;;;;;4.60;2.00;;;;;;;12.12;100.00;95211.19;4994419;28;20248;-82
2022/06/09 03:40:49;;;;;;;6.97;2.10;;;;;;;12.18;100.00;95218.31;4994247;28;20179;-82
2022/06/09 03:43:14;;;;;;;3.47;1.77;;;;;;;12.16;100.00;95214.28;5014520;28;20214;-82
2022/06/09 03:45:39;;;;;;;5.73;2.00;;;;;;;12.25;100.00;95208.06;5015508;28;20175;-82
2022/06/09 03:48:05;;;;;;;4.00;1.57;;;;;;;12.19;100.00;95204.34;4998308;28;20203;-81
2022/06/09 03:50:32;;;;;;;2.67;1.80;;;;;;;12.22;100.00;95210.22;5014174;28;20215;-79
2022/06/09 03:52:57;;;;;;;6.23;2.20;;;;;;;12.14;100.00;95198.81;5015491;28;20202;-80
2022/06/09 03:55:22;;;;;;;5.07;2.00;;;;;;;12.14;100.00;95204.03;5007504;28;20260;-80
2022/06/09 03:57:48;;;;;;;6.77;2.13;;;;;;;12.04;100.00;95203.41;5015973;28;20672;-82
2022/06/09 04:00:17;;;;;;;4.03;1.90;;;;;;;12.04;100.00;95210.41;5018613;28;20179;-81
2022/06/09 04:02:42;;;;;;;5.20;1.70;;;;;;;12.09;100.00;95215.91;5029375;28;20603;-82
2022/06/09 04:05:08;;;;;;;3.73;1.40;;;;;;;12.01;100.00;95226.31;4996441;28;20214;-82
2022/06/09 04:07:33;;;;;;;4.80;2.47;;;;;;;11.90;100.00;95228.28;5013387;28;20210;-81
2022/06/09 04:09:58;;;;;;;4.87;1.70;;;;;;;11.95;100.00;95227.00;4995139;28;20233;-81
2022/06/09 04:12:24;;;;;;;7.57;2.03;;;;;;;11.95;100.00;95235.63;5013210;28;20210;-79
2022/06/09 04:14:50;;;;;;;3.30;1.60;;;;;;;11.97;100.00;95227.63;4996209;28;20233;-80
2022/06/09 04:17:15;;;;;;;10.70;2.90;;;;;;;12.09;100.00;95239.31;4996351;28;20697;-80
2022/06/09 04:19:41;;;;;;;5.60;2.13;;;;;;;12.11;100.00;95233.00;5011307;28;20257;-78
2022/06/09 04:22:06;;;;;;;7.80;2.57;;;;;;;12.29;100.00;95239.81;4996191;28;20207;-79
2022/06/09 04:24:32;;;;;;;3.93;1.83;;;;;;;12.37;99.94;95239.81;4995416;28;20221;-81
2022/06/09 04:26:57;;;;;;;6.17;2.73;;;;;;;12.96;97.40;95238.44;5012490;28;20832;-79
2022/06/09 04:29:23;;;;;;;3.27;1.90;;;;;;;13.66;93.42;95250.66;5012230;28;20329;-82
2022/06/09 04:31:48;;;;;;;6.40;1.87;;;;;;;14.52;88.04;95246.84;4996313;28;20675;-81
2022/06/09 04:34:14;;;;;;;3.53;2.10;;;;;;;15.73;79.97;95245.56;5013168;28;20233;-82
2022/06/09 04:36:39;;;;;;;2.23;1.20;;;;;;;16.97;73.58;95249.31;5013095;28;20191;-82
2022/06/09 04:39:06;;;;;;;2.47;1.20;;;;;;;18.67;64.19;95252.53;5013141;28;20222;-80
2022/06/09 04:41:31;;;;;;;4.30;1.25;;;;;;;18.76;62.63;95260.19;5013020;28;20237;-82
2022/06/09 04:43:57;;;;;;;3.00;1.20;;;;;;;18.50;62.99;95250.50;4996152;28;20175;-80
2022/06/09 04:46:24;;;;;;;4.45;1.17;;;;;;;19.47;60.10;95262.81;4996574;28;20177;-79
2022/06/09 04:48:49;;;;;;;3.10;1.45;;;;;;;21.07;54.26;95260.66;4996351;28;20198;-80
2022/06/09 04:51:17;;;;;;;3.40;1.00;;;;;;;21.35;51.17;95274.16;4996661;28;20179;-81
2022/06/09 04:53:42;;;;;;;4.43;1.25;;;;;;;19.14;57.91;95274.25;5011172;28;20175;-79
2022/06/09 04:56:09;;;;;;;3.10;1.23;;;;;;;17.47;64.22;95270.91;5012443;28;20195;-81
2022/06/09 04:58:38;;;;;;;3.88;1.20;;;;;;;16.43;69.05;95284.84;5028811;28;20201;-81
2022/06/09 05:01:03;;;;;;;3.45;1.27;;;;;;;16.72;70.71;95275.19;5014185;28;20168;-80
2022/06/09 05:03:28;;;;;;;6.15;1.58;;;;;;;19.19;61.49;95282.34;4996252;28;20225;-82
2022/06/09 05:05:54;;;;;;;5.28;1.17;;;;;;;21.09;54.46;95283.16;4995411;28;20183;-81
2022/06/09 05:08:19;;;;;;;3.28;1.13;;;;;;;22.37;50.41;95284.03;4996405;28;20206;-81
2022/06/09 05:10:45;;;;;;;3.15;1.30;;;;;;;23.36;46.78;95288.44;5012762;28;20179;-81
2022/06/09 05:13:12;;;;;;;2.28;1.08;;;;;;;23.64;44.85;95290.34;5029114;28;20186;-81
2022/06/09 05:15:49;;;;;;;5.55;1.60;;;;;;;24.14;43.71;95294.19;5012032;28;20626;-81
2022/06/09 05:18:15;;;;;;;4.13;1.52;;;;;;;23.87;43.47;95299.28;4996537;28;20576;-80
2022/06/09 05:20:40;;;;;;;3.47;0.90;;;;;;;24.22;42.44;95304.41;5010938;28;20179;-81
2022/06/09 05:23:05;;;;;;;3.28;1.02;;;;;;;23.69;44.90;95306.34;4996361;28;20666;-82
2022/06/09 05:25:31;;;;;;;3.75;1.05;;;;;;;24.07;43.33;95304.94;4995336;28;20198;-82
2022/06/09 05:27:56;;;;;;;4.28;1.00;;;;;;;24.90;41.10;95314.03;5012436;28;20199;-80
2022/06/09 05:30:23;;;;;;;3.03;0.80;;;;;;;24.38;42.11;95316.91;5013652;28;20548;-80
2022/06/09 05:32:49;;;;;;;2.13;0.80;;;;;;;23.33;45.14;95314.59;4995944;28;20241;-82
2022/06/09 05:35:15;;;;;;;7.15;1.75;;;;;;;23.25;44.63;95307.81;5011649;28;20211;-82
2022/06/09 05:45:54;;;;;;;3.65;1.13;;;;;;;20.90;52.24;95321.94;5011813;28;20313;-82
2022/06/09 05:48:21;;;;;;;1.92;1.00;;;;;;;20.53;53.68;95325.50;5011560;28;20706;-82
2022/06/09 05:50:47;;;;;;;6.40;1.30;;;;;;;19.90;55.38;95326.25;5011859;28;20206;-82
2022/06/09 05:53:12;;;;;;;4.03;1.42;;;;;;;19.03;59.24;95324.91;5011980;28;20210;-82
2022/06/09 05:55:37;;;;;;;4.43;1.48;;;;;;;19.67;57.13;95329.41;5011359;28;20194;-82
2022/06/09 05:58:02;;;;;;;4.90;1.48;;;;;;;18.86;59.84;95339.50;5011966;28;20195;-82
2022/06/09 06:00:28;;;;;;;5.00;1.30;;;;;;;18.19;62.17;95338.63;5011789;28;20203;-80
2022/06/09 06:02:53;;;;;;;3.70;1.10;;;;;;;16.91;64.68;95334.03;5013086;28;20174;-80
2022/06/09 06:08:02;;;;;;;6.40;1.52;;;;;;;16.05;71.67;95346.38;5011860;28;20286;-80
2022/06/09 06:10:30;;;;;;;3.50;1.35;;;;;;;17.58;65.88;95350.94;4997276;28;20202;-80
2022/06/09 06:12:55;;;;;;;7.30;1.52;;;;;;;18.18;61.49;95338.81;5011952;28;20195;-82
2022/06/09 06:15:20;;;;;;;4.93;1.17;;;;;;;19.59;57.82;95347.25;4997275;28;20667;-82
2022/06/09 06:17:46;;;;;;;6.68;1.58;;;;;;;20.82;53.02;95350.41;4995766;28;20257;-81
2022/06/09 06:20:12;;;;;;;2.00;1.00;;;;;;;20.87;49.48;95353.22;5012052;28;20221;-81
2022/06/09 06:22:37;;;;;;;3.13;1.35;;;;;;;20.68;50.34;95357.66;4996507;28;20191;-83
2022/06/09 06:25:06;;;;;;;5.70;1.48;;;;;;;21.22;50.61;95366.72;4994449;28;20257;-82
2022/06/09 06:27:31;;;;;;;4.53;1.30;;;;;;;21.09;49.02;95370.28;4995628;28;20191;-81
2022/06/09 06:29:56;;;;;;;4.47;1.27;;;;;;;21.39;48.00;95374.91;5011627;28;20179;-83
2022/06/09 06:32:21;;;;;;;4.40;1.10;;;;;;;20.71;49.03;95388.06;5011126;28;20613;-83
2022/06/09 06:34:47;;;;;;;3.95;1.20;;;;;;;21.78;46.51;95381.59;5011590;28;20199;-83
2022/06/09 06:37:12;;;;;;;5.85;1.30;;;;;;;21.90;46.30;95376.34;5011257;28;20187;-83
2022/06/09 06:39:37;;;;;;;3.83;0.95;;;;;;;22.79;42.71;95377.38;5011204;28;20198;-83
2022/06/09 06:42:03;;;;;;;5.00;1.00;;;;;;;22.80;44.35;95384.31;4995041;28;20219;-80
2022/06/09 06:44:28;;;;;;;4.55;1.10;;;;;;;22.06;45.26;95383.69;5006099;28;20255;-81
2022/06/09 06:46:54;;;;;;;5.75;1.40;;;;;;;21.78;46.43;95381.59;5017155;28;20179;-80
2022/06/09 06:49:19;;;;;;;6.60;1.38;;;;;;;22.17;45.86;95385.59;5018696;28;20190;-82
2022/06/09 06:51:44;;;;;;;7.30;1.30;;;;;;;22.31;44.87;95395.00;5016973;28;20183;-79
2022/06/09 06:54:11;;;;;;;4.25;1.23;;;;;;;22.80;42.99;95403.66;5007504;28;20524;-82
2022/06/09 06:56:37;;;;;;;5.30;0.93;;;;;;;23.01;43.58;95401.53;4996141;28;20183;-82
2022/06/09 06:59:02;;;;;;;5.78;1.38;;;;;;;23.11;43.54;95393.81;5012610;28;20198;-82
2022/06/09 07:01:28;;;;;;;3.72;1.25;;;;;;;23.43;42.79;95410.19;5027626;28;20270;-81
2022/06/09 07:03:55;;;;;;;3.95;1.23;;;;;;;22.42;43.83;95409.28;5028684;28;20175;-82
2022/06/09 07:06:20;;;;;;;5.70;1.50;;;;;;;21.05;47.54;95419.28;5012721;28;20225;-82
2022/06/09 07:08:45;;;;;;;2.50;1.10;;;;;;;21.90;44.96;95410.72;5012518;28;20198;-80
2022/06/09 07:11:11;;;;;;;6.35;1.27;;;;;;;21.02;46.71;95422.31;4996144;28;20274;-82
2022/06/09 07:13:37;;;;;;;3.05;0.98;;;;;;;21.93;45.95;95424.31;5012714;28;20186;-82
2022/06/09 07:16:03;;;;;;;6.88;1.00;;;;;;;21.57;45.53;95425.13;5012621;28;20207;-81
2022/06/09 07:18:29;;;;;;;6.03;1.33;;;;;;;22.48;43.93;95423.47;5009025;28;20207;-80
2022/06/09 07:20:55;;;;;;;4.65;1.17;;;;;;;23.37;42.36;95425.16;5034541;28;20175;-80
2022/06/09 07:23:22;;;;;;;3.53;1.73;;;;;;;21.96;46.45;95431.00;5020444;28;20251;-81
2022/06/09 07:25:47;;;;;;;4.85;1.48;;;;;;;22.14;45.32;95425.72;5020611;28;20233;-82
2022/06/09 07:28:13;;;;;;;4.70;1.10;;;;;;;22.01;45.28;95423.22;5021078;28;20183;-81
2022/06/09 07:30:39;;;;;;;4.03;0.98;;;;;;;20.97;48.66;95438.00;5026961;28;20171;-81
2022/06/09 07:33:04;;;;;;;5.45;0.95;;;;;;;20.87;47.30;95433.22;5041622;28;20202;-82
2022/06/09 07:35:31;;;;;;;4.97;1.50;;;;;;;22.16;46.01;95442.19;5024906;28;20191;-81
2022/06/09 07:37:57;;;;;;;3.20;1.40;;;;;;;22.09;44.68;95438.03;5026101;28;20289;-82
2022/06/09 07:40:22;;;;;;;6.78;1.52;;;;;;;21.16;48.20;95442.31;5008483;28;20686;-79
2022/06/09 07:42:48;;;;;;;4.45;1.55;;;;;;;21.13;47.99;95447.25;5026500;28;20208;-82
2022/06/09 07:45:16;;;;;;;4.28;1.20;;;;;;;20.18;50.06;95449.00;5035688;28;20174;-82
2022/06/09 07:47:41;;;;;;;5.85;1.50;;;;;;;20.70;48.10;95449.78;5020005;28;20198;-82
2022/06/09 07:50:08;;;;;;;4.30;1.20;;;;;;;20.85;49.36;95455.56;5019601;28;20303;-82
2022/06/09 07:52:34;;;;;;;5.57;1.10;;;;;;;20.16;49.57;95453.69;5050565;28;20175;-83
2022/06/09 07:54:59;;;;;;;5.75;1.17;;;;;;;19.58;51.91;95458.91;5034820;28;20653;-82
2022/06/09 07:57:24;;;;;;;8.15;1.40;;;;;;;19.75;51.48;95460.91;5037288;28;20183;-82
2022/06/09 07:59:49;;;;;;;4.50;1.70;;;;;;;19.64;51.98;95463.38;5019312;28;20214;-82
2022/06/09 08:02:15;;;;;;;5.57;1.13;;;;;;;19.26;52.29;95464.00;5035816;28;20174;-83
2022/06/09 08:04:40;;;;;;;9.07;1.63;;;;;;;19.63;50.94;95467.81;5038605;28;20189;-84
2022/06/09 08:07:06;;;;;;;5.18;1.23;;;;;;;19.64;51.42;95471.25;5040476;28;20277;-83
2022/06/09 08:10:34;;;;;;;3.80;1.10;;;;;;;19.44;50.75;95472.06;5039365;28;20270;-83
2022/06/09 08:13:32;;;;;;;6.13;1.33;;;;;;;19.57;51.96;95467.81;5003672;28;20303;-84
2022/06/09 08:22:17;;;;;;;2.83;1.33;;;;;;;19.35;51.48;95461.97;4943041;29;20601;-83
2022/06/09 08:24:46;;;;;;;4.25;1.25;;;;;;;19.10;52.37;95457.31;4941361;29;20180;-84
2022/06/09 08:27:14;;;;;;;4.95;1.60;;;;;;;18.78;56.12;95465.97;4958042;28;20634;-84
2022/06/09 08:29:45;;;;;;;5.93;1.17;;;;;;;18.60;55.29;95466.50;4926310;29;20217;-84
2022/06/09 08:32:18;;;;;;;6.65;3.00;;;;;;;19.31;55.30;95468.63;4957911;28;20189;-84
2022/06/09 08:35:10;;;;;;;3.85;1.20;;;;;;;19.04;54.52;95458.09;4942964;29;20197;-85
2022/06/09 08:37:50;;;;;;;5.97;1.63;;;;;;;19.47;52.49;95466.38;4959164;28;20244;-84
2022/06/09 08:40:43;;;;;;;5.85;1.27;;;;;;;19.69;52.49;95468.81;4943089;29;20212;-85
2022/06/09 08:43:32;;;;;;;3.25;1.30;;;;;;;19.25;52.81;95470.25;4942153;29;20189;-84
2022/06/09 08:46:10;;;;;;;6.07;1.65;;;;;;;19.27;54.13;95462.16;4958526;29;20201;-84
2022/06/09 08:48:38;;;;;;;2.95;1.05;;;;;;;19.73;52.81;95473.47;4926357;29;20205;-85
2022/06/09 08:51:10;;;;;;;7.35;1.33;;;;;;;19.94;51.60;95475.03;4957990;29;20216;-84
2022/06/09 08:53:39;;;;;;;4.47;1.10;;;;;;;19.78;50.85;95472.84;4938441;29;20687;-84
2022/06/09 08:56:11;;;;;;;4.70;1.38;;;;;;;19.49;51.55;95468.81;4982122;28;20217;-83
2022/06/09 08:58:41;;;;;;;7.57;1.65;;;;;;;18.77;54.30;95470.44;5050877;28;20761;-82
2022/06/09 09:01:09;;;;;;;4.25;1.10;;;;;;;19.04;54.74;95467.81;5014843;28;20183;-82
2022/06/09 09:04:02;;;;;;;5.25;1.40;;;;;;;19.12;52.37;95480.78;5011706;28;20183;-82
2022/06/09 09:06:51;;;;;;;3.95;1.00;;;;;;;19.04;54.28;95473.91;5025098;28;20195;-81
2022/06/09 09:09:26;;;;;;;5.85;2.08;;;;;;;18.64;55.36;95483.50;4998528;28;20210;-83
2022/06/09 09:12:14;;;;;;;4.28;1.30;;;;;;;19.36;53.67;95474.91;4999238;28;20203;-82
2022/06/09 09:15:11;;;;;;;4.22;1.77;;;;;;;19.73;52.30;95478.75;5013970;28;20195;-83
2022/06/09 09:17:51;;;;;;;5.20;1.40;;;;;;;19.97;53.50;95477.28;5014864;28;20203;-82
2022/06/09 09:20:17;;;;;;;3.80;1.50;;;;;;;19.83;53.05;95482.78;5010943;28;20190;-81
2022/06/09 09:22:56;;;;;;;6.38;1.40;;;;;;;19.40;52.34;95480.56;5015686;28;20183;-81
2022/06/09 09:25:57;;;;;;;3.67;1.20;;;;;;;19.24;54.72;95485.22;5033415;28;20221;-82
2022/06/09 09:28:27;;;;;;;4.55;1.40;;;;;;;19.45;51.13;95492.13;5017202;28;20202;-83
2022/06/09 09:31:20;;;;;;;4.50;1.00;;;;;;;19.34;52.42;95494.53;5034629;28;20175;-83
2022/06/09 09:33:46;;;;;;;4.43;1.30;;;;;;;19.58;52.65;95501.06;5019012;28;20633;-83
2022/06/09 09:36:24;;;;;;;5.47;1.25;;;;;;;19.28;51.52;95498.81;5017489;28;20199;-82
2022/06/09 09:38:56;;;;;;;3.67;1.50;;;;;;;19.40;51.88;95493.75;5021269;28;20214;-83
2022/06/09 09:41:33;;;;;;;4.70;1.02;;;;;;;19.45;51.06;95510.56;5020482;28;20192;-84
2022/06/09 09:44:00;;;;;;;6.28;1.00;;;;;;;18.80;51.51;95503.41;5020818;28;20593;-83
2022/06/09 09:46:34;;;;;;;5.55;1.33;;;;;;;19.41;51.62;95508.53;5020583;28;20186;-83
2022/06/09 09:49:02;;;;;;;3.40;0.88;;;;;;;18.79;50.63;95509.69;5019295;28;20545;-83
2022/06/09 09:51:38;;;;;;;4.13;1.20;;;;;;;19.13;51.49;95512.16;5018442;28;20201;-83
2022/06/09 09:54:15;;;;;;;5.95;1.40;;;;;;;19.35;50.27;95510.16;5017832;28;20174;-83
2022/06/09 09:56:42;;;;;;;5.53;1.10;;;;;;;19.16;52.21;95513.56;5018310;28;20568;-82
2022/06/09 09:59:22;;;;;;;3.88;1.10;;;;;;;19.50;53.46;95508.09;5018857;28;20280;-83
2022/06/09 10:10:26;;;;;;;4.25;1.38;;;;;;;19.70;50.78;95526.59;5036035;28;20181;-83
2022/06/09 10:12:55;;;;;;;4.65;1.27;;;;;;;19.90;50.12;95526.53;5034436;28;20183;-84
2022/06/09 10:15:26;;;;;;;5.22;1.00;;;;;;;20.07;50.40;95538.25;5031023;28;20197;-84
2022/06/09 10:17:55;;;;;;;3.42;1.17;;;;;;;20.15;50.40;95539.88;5028613;28;20226;-83
2022/06/09 10:20:28;;;;;;;7.32;1.70;;;;;;;20.34;49.46;95532.91;5040969;28;20183;-84
2022/06/09 10:23:09;;;;;;;4.53;1.25;;;;;;;20.72;48.18;95532.97;5019780;28;20194;-84
2022/06/09 10:26:02;;;;;;;3.97;1.23;;;;;;;20.74;47.05;95538.84;5036091;28;20193;-82
2022/06/09 10:28:27;;;;;;;4.90;1.20;;;;;;;20.23;49.98;95549.34;5018431;28;20216;-83
2022/06/09 10:31:12;;;;;;;3.47;1.30;;;;;;;19.77;52.50;95558.97;5034125;28;20285;-83
2022/06/09 10:33:56;;;;;;;3.67;1.42;;;;;;;20.05;51.02;95557.91;5033148;28;20198;-83
2022/06/09 10:36:37;;;;;;;4.30;1.42;;;;;;;20.38;50.30;95549.94;5033001;28;20260;-86
2022/06/09 10:39:39;;;;;;;3.75;1.20;;;;;;;20.07;50.78;95562.00;5016639;28;20641;-83
2022/06/09 10:42:31;;;;;;;6.63;1.50;;;;;;;19.19;52.53;95556.13;4951724;28;20194;-83
2022/06/09 10:45:13;;;;;;;4.70;1.38;;;;;;;19.11;52.26;95558.13;5015407;28;20178;-83
2022/06/09 10:56:40;;;;;;;4.88;1.48;;;;;;;19.29;55.16;95568.06;5012286;28;20408;-82
2022/06/09 10:59:12;;;;;;;7.00;1.42;;;;;;;19.51;52.08;95561.59;5012578;28;20215;-83
2022/06/09 11:01:37;;;;;;;5.03;1.48;;;;;;;19.34;51.92;95566.44;4995954;28;20225;-83
2022/06/09 11:04:05;;;;;;;6.07;1.70;;;;;;;19.15;50.88;95572.50;5011792;28;20183;-83
2022/06/09 11:06:53;;;;;;;3.75;1.38;;;;;;;19.03;52.05;95571.47;4996086;28;20574;-83
2022/06/09 11:09:48;;;;;;;6.47;1.60;;;;;;;19.50;51.47;95570.50;5012293;28;20291;-86
2022/06/09 11:12:14;;;;;;;4.65;1.50;;;;;;;19.35;51.75;95567.28;4996399;28;20179;-81
2022/06/09 11:15:36;;;;;;;4.20;1.75;;;;;;;19.23;51.59;95567.84;5010982;28;20190;-82
2022/06/09 11:18:13;;;;;;;4.28;1.40;;;;;;;19.61;49.95;95569.94;4955595;28;20322;-82
2022/06/09 11:20:50;;;;;;;9.73;1.38;;;;;;;19.65;50.97;95573.78;4955382;28;20283;-82
2022/06/09 11:23:46;;;;;;;4.53;1.02;;;;;;;19.87;48.89;95576.19;4939053;28;20679;-82
2022/06/09 11:26:36;;;;;;;2.10;1.00;;;;;;;19.46;48.84;95566.66;4971649;28;20203;-82
2022/06/09 11:29:05;;;;;;;4.38;1.20;;;;;;;19.76;48.83;95567.91;4955611;28;20205;-82
2022/06/09 11:31:44;;;;;;;4.78;1.20;;;;;;;19.37;50.59;95573.16;4971467;28;20191;-82
2022/06/09 11:34:18;;;;;;;2.80;1.15;;;;;;;19.40;50.74;95573.53;4955738;28;20212;-82
2022/06/09 11:37:12;;;;;;;4.13;1.35;;;;;;;19.35;51.67;95568.09;4955955;28;20247;-83
2022/06/09 11:39:46;;;;;;;3.80;0.98;;;;;;;19.37;50.81;95573.16;4955730;28;20193;-83
2022/06/09 11:42:20;;;;;;;5.57;1.25;;;;;;;19.37;47.68;95573.97;4955834;28;20189;-82
2022/06/09 11:44:48;;;;;;;3.50;0.98;;;;;;;19.77;45.47;95571.34;4955263;28;20185;-83
2022/06/09 11:47:20;;;;;;;2.28;0.90;;;;;;;19.72;45.48;95564.06;4939813;28;20187;-82
2022/06/09 11:49:51;;;;;;;4.97;1.10;;;;;;;19.54;46.79;95569.09;4996154;28;20218;-82
2022/06/09 11:52:22;;;;;;;3.63;1.10;;;;;;;19.38;49.18;95566.88;5011816;28;20209;-82
2022/06/09 11:54:54;;;;;;;3.25;0.88;;;;;;;19.18;50.71;95566.84;5014063;28;20191;-84
2022/06/09 12:00:05;;;;;;;4.20;1.50;;;;;;;19.18;53.44;95574.75;5411213;23;20715;-82
2022/06/09 12:02:57;;;;;;;3.13;1.20;;;;;;;19.90;50.03;95568.72;5055856;28;20184;-82
2022/06/09 12:05:47;;;;;;;5.45;1.27;;;;;;;20.31;47.50;95573.69;5040983;28;20227;-81
2022/06/09 12:08:21;;;;;;;3.47;1.02;;;;;;;20.63;46.46;95565.91;5062646;28;20603;-82
2022/06/09 12:11:08;;;;;;;3.10;0.82;;;;;;;20.43;45.29;95571.25;5119727;28;20173;-83
2022/06/09 12:14:09;;;;;;;2.97;1.05;;;;;;;20.58;44.33;95566.53;5101077;28;20151;-83
2022/06/09 12:16:40;;;;;;;4.00;0.90;;;;;;;19.97;44.52;95577.44;5103337;28;20210;-83
2022/06/09 12:19:26;;;;;;;4.03;1.20;;;;;;;20.39;45.53;95570.00;5078859;28;20200;-81
2022/06/09 12:21:59;;;;;;;2.03;0.95;;;;;;;20.86;44.56;95579.41;5062661;28;20200;-82
2022/06/09 12:24:36;;;;;;;6.30;1.50;;;;;;;20.50;45.76;95573.88;5077876;28;20569;-83
2022/06/09 12:27:40;;;;;;;7.22;1.55;;;;;;;20.13;46.53;95580.63;5078730;28;20251;-82